Time;durP1;ratioP1;P1;durP2;ratioP2;P2;SDS_P1;SDS_P2;PMS_P1;PMS_P2;Temp;Humidity;BMP_temperature;BMP_pressure;BME280_temperature;BME280_humidity;BME280_pressure;Samples;Min_cycle;Max_cycle;Signal;HPM_P1;HPM_P2
2022/03/09 00:01:59;;;;;;;2.03;0.80;;;;;;;;;;5004921;28;20041;-57
2022/03/09 00:04:26;;;;;;;0.30;0.30;;;;;;;;;;5009096;28;20044;-52
2022/03/09 00:06:52;;;;;;;1.08;0.50;;;;;;;;;;5000177;28;20048;-56
2022/03/09 00:09:18;;;;;;;2.05;0.60;;;;;;;;;;5000819;28;20045;-56
2022/03/09 00:11:43;;;;;;;1.20;0.63;;;;;;;;;;4999981;28;20103;-57
2022/03/09 00:14:09;;;;;;;2.72;0.73;;;;;;;;;;4998446;28;20404;-56
2022/03/09 00:16:35;;;;;;;2.08;0.75;;;;;;;;;;5000102;28;20129;-57
2022/03/09 00:19:01;;;;;;;2.95;0.80;;;;;;;;;;5001328;28;20045;-54
2022/03/09 00:21:28;;;;;;;1.88;0.73;;;;;;;;;;5000303;28;20072;-57
2022/03/09 00:23:54;;;;;;;2.15;0.65;;;;;;;;;;5002234;28;20050;-57
2022/03/09 00:26:19;;;;;;;1.30;0.55;;;;;;;;;;4999539;28;20049;-56
2022/03/09 00:28:45;;;;;;;1.08;0.40;;;;;;;;;;5003121;28;20136;-55
2022/03/09 00:31:11;;;;;;;2.53;0.73;;;;;;;;;;5001492;28;20042;-55
2022/03/09 00:33:38;;;;;;;0.77;0.40;;;;;;;;;;5001891;28;20041;-54
2022/03/09 00:36:04;;;;;;;0.88;0.60;;;;;;;;;;5002107;28;21719;-56
2022/03/09 00:38:30;;;;;;;1.67;0.65;;;;;;;;;;5001161;28;20057;-54
2022/03/09 00:40:56;;;;;;;1.65;0.65;;;;;;;;;;5000805;28;20129;-55
2022/03/09 00:43:22;;;;;;;1.88;0.70;;;;;;;;;;5000603;28;20380;-55
2022/03/09 00:45:48;;;;;;;1.98;0.70;;;;;;;;;;5002819;28;20133;-54
2022/03/09 00:48:14;;;;;;;1.27;0.57;;;;;;;;;;5002463;28;20069;-56
2022/03/09 00:50:40;;;;;;;1.35;0.60;;;;;;;;;;4995673;28;20191;-55
2022/03/09 00:53:06;;;;;;;1.77;0.70;;;;;;;;;;5000829;28;20712;-54
2022/03/09 00:55:32;;;;;;;2.17;0.80;;;;;;;;;;5021993;28;20040;-53
2022/03/09 00:57:58;;;;;;;1.83;0.57;;;;;;;;;;5001458;28;20054;-57
2022/03/09 01:00:23;;;;;;;0.30;0.30;;;;;;;;;;4999277;28;20042;-55
2022/03/09 01:02:49;;;;;;;2.47;1.05;;;;;;;;;;5002144;28;20052;-55
2022/03/09 01:05:15;;;;;;;0.88;0.50;;;;;;;;;;5001507;28;20064;-55
2022/03/09 01:07:41;;;;;;;2.20;0.80;;;;;;;;;;5000806;28;20037;-55
2022/03/09 01:10:08;;;;;;;1.92;0.80;;;;;;;;;;4985626;28;20065;-53
2022/03/09 01:12:34;;;;;;;2.63;0.95;;;;;;;;;;5003121;28;20528;-54
2022/03/09 01:15:01;;;;;;;4.18;1.17;;;;;;;;;;5002444;28;20117;-55
2022/03/09 01:17:27;;;;;;;1.00;0.43;;;;;;;;;;5014681;28;20033;-55
2022/03/09 01:19:53;;;;;;;1.75;0.73;;;;;;;;;;5002086;28;20049;-55
2022/03/09 01:22:19;;;;;;;2.15;0.93;;;;;;;;;;4998719;28;20826;-56
2022/03/09 01:24:45;;;;;;;2.83;0.60;;;;;;;;;;5001501;28;20394;-56
2022/03/09 01:27:12;;;;;;;3.67;1.00;;;;;;;;;;4998670;28;20413;-57
2022/03/09 01:29:38;;;;;;;1.65;0.70;;;;;;;;;;5002276;28;20054;-56
2022/03/09 01:32:04;;;;;;;1.75;0.68;;;;;;;;;;4998807;28;20045;-57
2022/03/09 01:34:30;;;;;;;2.80;0.98;;;;;;;;;;4998025;28;20033;-53
2022/03/09 01:36:56;;;;;;;3.25;0.63;;;;;;;;;;4998168;28;20033;-55
2022/03/09 01:39:22;;;;;;;1.50;0.50;;;;;;;;;;4999028;28;20039;-56
2022/03/09 01:41:48;;;;;;;0.52;0.43;;;;;;;;;;4998643;28;20049;-54
2022/03/09 01:44:15;;;;;;;1.50;0.77;;;;;;;;;;4999091;28;20045;-55
2022/03/09 01:46:41;;;;;;;1.55;0.70;;;;;;;;;;4974308;28;20062;-54
2022/03/09 01:49:08;;;;;;;13.23;0.90;;;;;;;;;;4989332;28;20045;-55
2022/03/09 01:51:36;;;;;;;1.42;0.60;;;;;;;;;;4982831;28;20069;-56
2022/03/09 01:54:05;;;;;;;0.77;0.45;;;;;;;;;;4980709;28;20077;-58
2022/03/09 01:56:31;;;;;;;1.67;0.82;;;;;;;;;;4986710;28;20099;-55
2022/03/09 01:58:57;;;;;;;1.73;0.68;;;;;;;;;;4983596;28;20038;-54
2022/03/09 02:01:23;;;;;;;4.45;1.08;;;;;;;;;;4979458;28;20042;-56
2022/03/09 02:03:49;;;;;;;3.38;1.17;;;;;;;;;;4981489;28;20042;-54
2022/03/09 02:06:15;;;;;;;1.83;0.90;;;;;;;;;;4979442;28;20050;-54
2022/03/09 02:11:28;;;;;;;3.17;0.90;;;;;;;;;;4979783;28;20066;-57
2022/03/09 02:13:54;;;;;;;3.88;0.93;;;;;;;;;;4977488;28;20153;-55
2022/03/09 02:16:20;;;;;;;3.35;1.05;;;;;;;;;;4981955;28;20117;-54
2022/03/09 02:18:46;;;;;;;2.10;0.90;;;;;;;;;;4982068;28;20049;-53
2022/03/09 02:21:15;;;;;;;2.70;1.08;;;;;;;;;;4982333;28;20053;-56
2022/03/09 02:23:41;;;;;;;2.03;0.75;;;;;;;;;;4983126;28;20042;-53
2022/03/09 02:26:07;;;;;;;8.70;1.55;;;;;;;;;;4981023;28;20497;-56
2022/03/09 02:28:53;;;;;;;7.40;1.38;;;;;;;;;;4976388;28;20045;-54
2022/03/09 02:31:19;;;;;;;4.70;1.08;;;;;;;;;;4976941;28;20080;-53
2022/03/09 02:33:45;;;;;;;5.40;1.80;;;;;;;;;;4985212;28;20037;-52
2022/03/09 02:36:11;;;;;;;5.03;1.63;;;;;;;;;;4993965;28;20381;-55
2022/03/09 02:38:37;;;;;;;4.18;1.58;;;;;;;;;;5003793;28;20049;-53
2022/03/09 02:41:03;;;;;;;3.40;1.23;;;;;;;;;;5004113;28;20039;-53
2022/03/09 02:43:29;;;;;;;3.38;1.33;;;;;;;;;;5005851;28;20048;-53
2022/03/09 02:45:55;;;;;;;2.75;1.30;;;;;;;;;;5019078;28;20034;-53
2022/03/09 02:48:21;;;;;;;3.15;1.23;;;;;;;;;;5006714;28;20503;-56
2022/03/09 02:50:47;;;;;;;2.10;0.93;;;;;;;;;;5003011;28;20083;-56
2022/03/09 02:53:13;;;;;;;0.65;0.55;;;;;;;;;;4997154;28;20473;-57
2022/03/09 02:55:39;;;;;;;1.15;0.55;;;;;;;;;;4997019;28;20128;-55
2022/03/09 02:58:05;;;;;;;1.23;0.55;;;;;;;;;;5000389;28;21038;-56
2022/03/09 03:00:31;;;;;;;0.85;0.47;;;;;;;;;;4997010;28;20046;-54
2022/03/09 03:02:57;;;;;;;1.60;0.60;;;;;;;;;;4998596;28;20084;-54
2022/03/09 03:05:23;;;;;;;1.13;0.55;;;;;;;;;;4997991;28;20050;-57
2022/03/09 03:07:49;;;;;;;0.82;0.50;;;;;;;;;;5000950;28;20038;-57
2022/03/09 03:10:15;;;;;;;1.13;0.50;;;;;;;;;;4998152;28;20062;-53
2022/03/09 03:12:41;;;;;;;3.08;0.95;;;;;;;;;;4996799;28;20382;-57
2022/03/09 03:15:07;;;;;;;2.50;1.00;;;;;;;;;;4999123;28;20030;-54
2022/03/09 03:17:37;;;;;;;1.75;0.60;;;;;;;;;;4994497;28;20046;-55
2022/03/09 03:20:04;;;;;;;2.35;0.73;;;;;;;;;;5000112;28;20042;-55
2022/03/09 03:22:29;;;;;;;0.70;0.45;;;;;;;;;;4998033;28;20124;-53
2022/03/09 03:24:55;;;;;;;5.32;1.05;;;;;;;;;;4999841;28;20065;-55
2022/03/09 03:27:21;;;;;;;2.22;1.05;;;;;;;;;;4998762;28;20049;-55
2022/03/09 03:29:47;;;;;;;0.63;0.43;;;;;;;;;;4999326;28;20054;-51
2022/03/09 03:32:13;;;;;;;1.92;0.70;;;;;;;;;;5012288;28;20042;-53
2022/03/09 03:34:41;;;;;;;18.90;0.85;;;;;;;;;;5003295;28;20042;-54
2022/03/09 03:37:07;;;;;;;1.33;0.50;;;;;;;;;;5004395;28;20068;-52
2022/03/09 03:39:34;;;;;;;1.30;0.50;;;;;;;;;;5006501;28;20038;-56
2022/03/09 03:42:00;;;;;;;1.00;0.60;;;;;;;;;;5008784;28;20095;-54
2022/03/09 03:44:25;;;;;;;4.05;0.55;;;;;;;;;;5007737;28;20450;-53
2022/03/09 03:46:51;;;;;;;0.90;0.32;;;;;;;;;;5003373;28;20054;-56
2022/03/09 03:49:17;;;;;;;1.05;0.50;;;;;;;;;;5003701;28;20473;-54
2022/03/09 03:51:43;;;;;;;1.95;0.35;;;;;;;;;;5002631;28;20050;-55
2022/03/09 03:54:10;;;;;;;2.13;0.93;;;;;;;;;;5023267;28;20662;-56
2022/03/09 03:56:36;;;;;;;1.33;0.82;;;;;;;;;;5010877;28;20063;-55
2022/03/09 03:59:02;;;;;;;1.50;0.60;;;;;;;;;;5007700;28;20042;-56
2022/03/09 04:01:28;;;;;;;2.38;0.57;;;;;;;;;;5024954;28;20068;-55
2022/03/09 04:03:54;;;;;;;0.93;0.55;;;;;;;;;;5011749;28;20037;-55
2022/03/09 04:06:20;;;;;;;0.20;0.20;;;;;;;;;;5007982;28;20034;-54
2022/03/09 04:08:46;;;;;;;4.10;0.80;;;;;;;;;;5013437;28;20056;-55
2022/03/09 04:11:11;;;;;;;1.95;0.60;;;;;;;;;;5007927;28;20081;-55
2022/03/09 04:13:37;;;;;;;1.67;0.60;;;;;;;;;;5012436;28;20089;-56
2022/03/09 04:16:03;;;;;;;3.53;1.20;;;;;;;;;;5009098;28;20048;-55
2022/03/09 04:18:29;;;;;;;6.03;0.80;;;;;;;;;;5009969;28;20035;-55
2022/03/09 04:20:55;;;;;;;1.38;0.60;;;;;;;;;;5008685;28;20457;-52
2022/03/09 04:23:21;;;;;;;1.33;0.60;;;;;;;;;;5005883;28;20037;-55
2022/03/09 04:25:47;;;;;;;4.07;0.70;;;;;;;;;;5004221;28;20034;-55
2022/03/09 04:28:13;;;;;;;1.15;0.43;;;;;;;;;;5005050;28;20161;-53
2022/03/09 04:30:39;;;;;;;0.68;0.47;;;;;;;;;;5000889;28;20050;-55
2022/03/09 04:33:06;;;;;;;0.52;0.30;;;;;;;;;;5003136;28;20622;-51
2022/03/09 04:35:31;;;;;;;3.25;0.90;;;;;;;;;;5003598;28;20073;-53
2022/03/09 04:37:57;;;;;;;0.93;0.40;;;;;;;;;;5003683;28;20061;-52
2022/03/09 04:40:23;;;;;;;2.50;0.82;;;;;;;;;;5002520;28;20050;-56
2022/03/09 04:42:49;;;;;;;0.57;0.38;;;;;;;;;;5035972;28;20038;-52
2022/03/09 04:45:15;;;;;;;3.92;0.60;;;;;;;;;;5004502;28;20070;-54
2022/03/09 04:47:41;;;;;;;0.40;0.28;;;;;;;;;;5001041;28;20053;-56
2022/03/09 04:50:07;;;;;;;1.02;0.52;;;;;;;;;;5000902;28;20073;-55
2022/03/09 04:52:36;;;;;;;0.77;0.47;;;;;;;;;;5002026;28;20141;-56
2022/03/09 04:55:02;;;;;;;3.65;0.93;;;;;;;;;;5019110;28;20103;-52
2022/03/09 04:57:28;;;;;;;0.73;0.47;;;;;;;;;;5017438;28;20065;-56
2022/03/09 04:59:54;;;;;;;3.42;0.52;;;;;;;;;;5000018;28;20049;-55
2022/03/09 05:02:20;;;;;;;0.55;0.32;;;;;;;;;;4999946;28;20134;-54
2022/03/09 05:04:46;;;;;;;22.55;1.10;;;;;;;;;;5001575;28;20045;-54
2022/03/09 05:07:12;;;;;;;0.82;0.55;;;;;;;;;;5015704;28;20388;-56
2022/03/09 05:09:38;;;;;;;0.40;0.40;;;;;;;;;;4998680;28;20049;-56
2022/03/09 05:12:05;;;;;;;1.17;0.60;;;;;;;;;;4998541;28;20050;-56
2022/03/09 05:14:31;;;;;;;0.80;0.40;;;;;;;;;;4998438;28;20080;-54
2022/03/09 05:16:57;;;;;;;0.20;0.20;;;;;;;;;;4999610;28;20128;-55
2022/03/09 05:19:23;;;;;;;1.98;0.60;;;;;;;;;;5006936;28;20056;-54
2022/03/09 05:21:52;;;;;;;0.80;0.50;;;;;;;;;;5005325;28;20360;-55
2022/03/09 05:24:17;;;;;;;1.17;0.75;;;;;;;;;;5022752;28;20115;-53
2022/03/09 05:26:46;;;;;;;1.70;0.57;;;;;;;;;;5000846;28;20038;-55
2022/03/09 05:29:13;;;;;;;0.95;0.40;;;;;;;;;;5000977;28;20100;-55
2022/03/09 05:31:39;;;;;;;0.20;0.20;;;;;;;;;;5003720;28;20042;-56
2022/03/09 05:34:05;;;;;;;1.65;0.38;;;;;;;;;;4999000;28;20068;-55
2022/03/09 05:36:31;;;;;;;0.55;0.40;;;;;;;;;;5000903;28;20041;-57
2022/03/09 05:38:56;;;;;;;0.55;0.45;;;;;;;;;;5002028;28;20538;-56
2022/03/09 05:41:22;;;;;;;2.13;0.65;;;;;;;;;;5001300;28;20037;-54
2022/03/09 05:43:50;;;;;;;1.23;0.55;;;;;;;;;;5011079;28;20046;-55
2022/03/09 05:46:16;;;;;;;0.75;0.43;;;;;;;;;;5002341;28;20041;-53
2022/03/09 05:48:42;;;;;;;2.25;0.32;;;;;;;;;;4999342;28;20041;-53
2022/03/09 05:51:08;;;;;;;0.88;0.50;;;;;;;;;;4998664;28;20056;-57
2022/03/09 05:53:34;;;;;;;4.15;0.50;;;;;;;;;;4999913;28;20141;-53
2022/03/09 05:56:00;;;;;;;1.55;0.50;;;;;;;;;;4999552;28;20041;-57
2022/03/09 05:58:26;;;;;;;5.78;0.47;;;;;;;;;;4999038;28;20390;-57
2022/03/09 06:00:51;;;;;;;1.80;0.47;;;;;;;;;;5001492;28;20037;-55
2022/03/09 06:03:17;;;;;;;1.15;0.50;;;;;;;;;;5000130;28;20052;-54
2022/03/09 06:05:43;;;;;;;0.50;0.40;;;;;;;;;;4998450;28;20038;-55
2022/03/09 06:08:09;;;;;;;1.95;0.77;;;;;;;;;;4998962;28;20172;-54
2022/03/09 06:10:35;;;;;;;0.85;0.40;;;;;;;;;;4996796;28;21767;-55
2022/03/09 06:13:01;;;;;;;0.38;0.32;;;;;;;;;;4996428;28;20029;-53
2022/03/09 06:15:27;;;;;;;3.47;1.23;;;;;;;;;;4996130;28;20045;-55
2022/03/09 06:17:54;;;;;;;0.63;0.30;;;;;;;;;;4996136;28;20084;-56
2022/03/09 06:20:21;;;;;;;2.15;0.70;;;;;;;;;;4999228;28;20129;-54
2022/03/09 06:22:48;;;;;;;1.73;0.40;;;;;;;;;;4999340;28;20964;-54
2022/03/09 06:25:17;;;;;;;0.32;0.30;;;;;;;;;;4998956;28;20045;-55
2022/03/09 06:27:44;;;;;;;3.83;1.10;;;;;;;;;;4994707;28;20119;-55
2022/03/09 06:30:10;;;;;;;1.05;0.63;;;;;;;;;;4998577;28;20088;-55
2022/03/09 06:32:36;;;;;;;0.98;0.50;;;;;;;;;;4995780;28;20034;-52
2022/03/09 06:35:03;;;;;;;6.38;1.35;;;;;;;;;;4997330;28;20514;-52
2022/03/09 06:37:29;;;;;;;0.70;0.40;;;;;;;;;;4999065;28;20042;-56
2022/03/09 06:39:58;;;;;;;0.77;0.50;;;;;;;;;;4998914;28;20127;-55
2022/03/09 06:42:25;;;;;;;1.08;0.50;;;;;;;;;;5020745;28;20521;-54
2022/03/09 06:44:51;;;;;;;1.50;0.63;;;;;;;;;;5000041;28;20030;-55
2022/03/09 06:47:16;;;;;;;0.63;0.22;;;;;;;;;;5003984;28;20037;-55
2022/03/09 06:49:42;;;;;;;1.85;0.80;;;;;;;;;;5008100;28;20626;-56
2022/03/09 06:52:08;;;;;;;1.42;0.63;;;;;;;;;;4999924;28;20073;-56
2022/03/09 06:54:35;;;;;;;1.45;0.75;;;;;;;;;;4999683;28;20122;-57
2022/03/09 06:57:00;;;;;;;0.20;0.20;;;;;;;;;;5002125;28;20053;-55
2022/03/09 06:59:26;;;;;;;1.00;0.55;;;;;;;;;;4999877;28;20042;-55
2022/03/09 07:01:52;;;;;;;2.53;0.60;;;;;;;;;;5000775;28;20117;-55
2022/03/09 07:04:18;;;;;;;2.28;0.90;;;;;;;;;;4999274;28;20041;-56
2022/03/09 07:06:44;;;;;;;0.98;0.50;;;;;;;;;;4998478;28;20671;-53
2022/03/09 07:09:10;;;;;;;1.15;0.70;;;;;;;;;;5000313;28;20034;-55
2022/03/09 07:11:36;;;;;;;1.52;1.25;;;;;;;;;;5004151;28;20045;-55
2022/03/09 07:14:02;;;;;;;1.50;0.52;;;;;;;;;;5002632;28;20467;-55
2022/03/09 07:16:28;;;;;;;7.70;1.83;;;;;;;;;;5003694;28;20041;-57
2022/03/09 07:18:54;;;;;;;0.25;0.25;;;;;;;;;;5003514;28;20049;-55
2022/03/09 07:21:20;;;;;;;1.05;0.50;;;;;;;;;;5002899;28;20030;-54
2022/03/09 07:23:46;;;;;;;2.15;0.95;;;;;;;;;;5002631;28;20372;-53
2022/03/09 07:26:12;;;;;;;6.18;1.10;;;;;;;;;;5002984;28;20119;-53
2022/03/09 07:28:38;;;;;;;0.43;0.40;;;;;;;;;;5000923;28;20487;-55
2022/03/09 07:31:03;;;;;;;0.75;0.47;;;;;;;;;;5002238;28;20116;-55
2022/03/09 07:33:30;;;;;;;0.73;0.40;;;;;;;;;;5003141;28;20030;-56
2022/03/09 07:35:56;;;;;;;3.40;1.45;;;;;;;;;;5002228;28;20034;-53
2022/03/09 07:38:22;;;;;;;0.88;0.60;;;;;;;;;;5011255;28;20033;-52
2022/03/09 07:40:48;;;;;;;0.65;0.35;;;;;;;;;;5012585;28;21139;-56
2022/03/09 07:43:14;;;;;;;1.30;0.57;;;;;;;;;;5002145;28;20021;-53
2022/03/09 07:45:40;;;;;;;0.95;0.68;;;;;;;;;;5004589;28;20032;-53
2022/03/09 07:48:07;;;;;;;0.55;0.30;;;;;;;;;;5002753;28;20022;-52
2022/03/09 07:50:33;;;;;;;1.17;0.80;;;;;;;;;;5001713;28;20114;-52
2022/03/09 07:52:59;;;;;;;1.33;0.75;;;;;;;;;;5009560;28;20034;-54
2022/03/09 07:55:25;;;;;;;1.95;1.10;;;;;;;;;;5015331;28;20074;-56
2022/03/09 07:57:51;;;;;;;0.38;0.38;;;;;;;;;;5018665;28;20026;-55
2022/03/09 08:00:17;;;;;;;0.80;0.43;;;;;;;;;;5007958;28;20046;-53
2022/03/09 08:02:43;;;;;;;1.95;0.75;;;;;;;;;;5004677;28;20083;-54
2022/03/09 08:05:09;;;;;;;2.30;1.08;;;;;;;;;;5002229;28;20030;-54
2022/03/09 08:07:35;;;;;;;1.95;0.82;;;;;;;;;;5004057;28;20276;-55
2022/03/09 08:10:01;;;;;;;2.25;0.77;;;;;;;;;;5002513;28;20039;-52
2022/03/09 08:12:27;;;;;;;1.27;0.60;;;;;;;;;;5001993;28;20030;-53
2022/03/09 08:14:53;;;;;;;1.23;0.70;;;;;;;;;;5011164;28;20029;-55
2022/03/09 08:17:19;;;;;;;0.93;0.57;;;;;;;;;;5006853;28;20441;-54
2022/03/09 08:19:45;;;;;;;5.65;0.57;;;;;;;;;;5010019;28;20041;-56
2022/03/09 08:22:11;;;;;;;0.55;0.40;;;;;;;;;;5014665;28;20025;-54
2022/03/09 08:24:37;;;;;;;1.20;0.57;;;;;;;;;;5015987;28;20570;-55
2022/03/09 08:27:03;;;;;;;0.35;0.30;;;;;;;;;;5009755;28;20025;-54
2022/03/09 08:29:30;;;;;;;1.25;0.68;;;;;;;;;;5000732;28;20054;-54
2022/03/09 08:31:55;;;;;;;1.83;0.85;;;;;;;;;;4998907;28;20049;-54
2022/03/09 08:34:21;;;;;;;1.65;0.73;;;;;;;;;;5001263;28;20092;-53
2022/03/09 08:36:47;;;;;;;1.35;0.65;;;;;;;;;;5000175;28;20100;-51
2022/03/09 08:39:13;;;;;;;0.52;0.43;;;;;;;;;;5002097;28;20108;-54
2022/03/09 08:41:39;;;;;;;0.68;0.50;;;;;;;;;;5000248;28;20054;-53
2022/03/09 08:44:05;;;;;;;1.33;0.68;;;;;;;;;;5000725;28;20499;-53
2022/03/09 08:46:31;;;;;;;3.78;1.08;;;;;;;;;;5002140;28;20022;-53
2022/03/09 08:48:57;;;;;;;2.30;1.15;;;;;;;;;;4999973;28;20030;-55
2022/03/09 08:51:23;;;;;;;0.90;0.57;;;;;;;;;;4996975;28;20030;-54
2022/03/09 08:53:49;;;;;;;1.10;0.88;;;;;;;;;;5001111;28;20328;-53
2022/03/09 08:56:15;;;;;;;1.15;0.82;;;;;;;;;;5000109;28;20034;-54
2022/03/09 08:58:42;;;;;;;3.80;1.08;;;;;;;;;;5008885;28;20044;-52
2022/03/09 09:01:08;;;;;;;1.70;0.93;;;;;;;;;;5013225;28;20040;-54
2022/03/09 09:03:33;;;;;;;2.28;1.40;;;;;;;;;;5010205;28;20112;-52
2022/03/09 09:06:00;;;;;;;0.30;0.30;;;;;;;;;;4999687;28;20100;-54
2022/03/09 09:08:46;;;;;;;1.52;0.73;;;;;;;;;;5017037;28;20030;-55
2022/03/09 09:11:11;;;;;;;0.75;0.40;;;;;;;;;;5015364;28;20061;-56
2022/03/09 09:13:37;;;;;;;0.85;0.75;;;;;;;;;;5017204;28;20029;-54
2022/03/09 09:16:04;;;;;;;2.28;1.25;;;;;;;;;;5016934;28;20037;-54
2022/03/09 09:18:30;;;;;;;0.50;0.43;;;;;;;;;;5014984;28;20072;-54
2022/03/09 09:20:57;;;;;;;0.95;0.68;;;;;;;;;;5015803;28;20101;-53
2022/03/09 09:23:42;;;;;;;0.55;0.55;;;;;;;;;;5018206;28;20104;-56
2022/03/09 09:26:07;;;;;;;0.30;0.30;;;;;;;;;;5030344;28;20056;-55
2022/03/09 09:28:33;;;;;;;0.40;0.40;;;;;;;;;;5025264;28;20041;-55
2022/03/09 09:30:59;;;;;;;1.75;1.23;;;;;;;;;;5013350;28;20420;-53
2022/03/09 09:33:25;;;;;;;5.60;0.65;;;;;;;;;;5009961;28;20045;-53
2022/03/09 09:35:51;;;;;;;0.55;0.50;;;;;;;;;;5011701;28;20042;-54
2022/03/09 09:38:17;;;;;;;1.42;0.85;;;;;;;;;;5020238;28;20033;-55
2022/03/09 09:40:45;;;;;;;0.73;0.55;;;;;;;;;;5019045;28;20047;-55
2022/03/09 09:43:12;;;;;;;0.77;0.60;;;;;;;;;;5015429;28;20067;-52
2022/03/09 09:45:39;;;;;;;5.00;0.88;;;;;;;;;;5012178;28;20052;-54
2022/03/09 09:48:06;;;;;;;0.25;0.25;;;;;;;;;;5014986;28;20453;-52
2022/03/09 09:50:32;;;;;;;0.88;0.60;;;;;;;;;;5010911;28;20056;-54
2022/03/09 09:52:58;;;;;;;0.45;0.40;;;;;;;;;;5011506;28;20057;-52
2022/03/09 09:55:27;;;;;;;1.02;0.77;;;;;;;;;;5009175;28;20172;-54
2022/03/09 09:57:54;;;;;;;0.70;0.45;;;;;;;;;;5010970;28;20079;-53
2022/03/09 10:00:20;;;;;;;0.50;0.50;;;;;;;;;;5007009;28;20099;-54
2022/03/09 10:02:46;;;;;;;1.58;1.02;;;;;;;;;;5000324;28;20092;-55
2022/03/09 10:05:14;;;;;;;0.45;0.35;;;;;;;;;;5000488;28;20149;-55
2022/03/09 10:07:58;;;;;;;0.52;0.40;;;;;;;;;;5000966;28;20036;-52
2022/03/09 10:10:24;;;;;;;0.68;0.52;;;;;;;;;;5000203;28;20080;-52
2022/03/09 10:12:50;;;;;;;2.97;1.02;;;;;;;;;;5000811;28;20104;-53
2022/03/09 10:15:16;;;;;;;1.73;1.00;;;;;;;;;;4999983;28;20056;-51
2022/03/09 10:17:42;;;;;;;0.60;0.55;;;;;;;;;;5002331;28;21428;-51
2022/03/09 10:20:10;;;;;;;2.10;0.80;;;;;;;;;;4998717;28;20113;-52
2022/03/09 10:22:37;;;;;;;1.63;1.17;;;;;;;;;;4999285;28;20029;-51
2022/03/09 10:25:08;;;;;;;0.77;0.60;;;;;;;;;;4998299;28;20022;-53
2022/03/09 10:27:39;;;;;;;1.85;1.08;;;;;;;;;;4999038;28;20025;-52
2022/03/09 10:30:10;;;;;;;1.27;0.75;;;;;;;;;;4997738;28;20022;-53
2022/03/09 10:32:47;;;;;;;1.67;0.95;;;;;;;;;;4996784;28;20030;-53
2022/03/09 10:35:15;;;;;;;0.35;0.35;;;;;;;;;;5000215;28;20025;-52
2022/03/09 10:37:42;;;;;;;2.50;0.82;;;;;;;;;;5000953;28;20035;-52
2022/03/09 10:40:09;;;;;;;0.80;0.63;;;;;;;;;;4996946;28;20034;-53
2022/03/09 10:42:35;;;;;;;1.75;0.90;;;;;;;;;;5012162;28;20036;-55
2022/03/09 10:45:03;;;;;;;1.48;0.93;;;;;;;;;;5015967;28;20029;-53
2022/03/09 10:47:30;;;;;;;1.23;0.88;;;;;;;;;;5010063;28;20040;-56
2022/03/09 10:50:09;;;;;;;0.30;0.30;;;;;;;;;;5009275;28;20034;-54
2022/03/09 10:52:42;;;;;;;1.35;0.82;;;;;;;;;;5002400;28;20062;-55
2022/03/09 10:55:20;;;;;;;1.98;0.90;;;;;;;;;;4999216;28;20017;-53
2022/03/09 10:57:46;;;;;;;0.20;0.20;;;;;;;;;;4998700;28;20033;-55
2022/03/09 11:00:12;;;;;;;0.82;0.57;;;;;;;;;;5000666;28;20053;-52
2022/03/09 11:02:49;;;;;;;0.63;0.63;;;;;;;;;;5002567;28;20609;-53
2022/03/09 11:05:17;;;;;;;0.43;0.40;;;;;;;;;;5013918;28;20061;-55
2022/03/09 11:07:43;;;;;;;0.35;0.35;;;;;;;;;;5018352;28;20490;-51
2022/03/09 11:10:13;;;;;;;1.77;1.17;;;;;;;;;;4999932;28;20057;-55
2022/03/09 11:12:39;;;;;;;0.47;0.40;;;;;;;;;;4999961;28;20085;-52
2022/03/09 11:15:06;;;;;;;0.45;0.45;;;;;;;;;;4995754;28;20057;-53
2022/03/09 11:17:33;;;;;;;0.20;0.20;;;;;;;;;;4999533;28;20464;-55
2022/03/09 11:19:59;;;;;;;0.32;0.32;;;;;;;;;;4998450;28;20329;-52
2022/03/09 11:22:24;;;;;;;0.38;0.35;;;;;;;;;;5000050;28;20088;-51
2022/03/09 11:24:52;;;;;;;1.17;0.75;;;;;;;;;;5000479;28;20639;-55
2022/03/09 11:27:18;;;;;;;0.50;0.40;;;;;;;;;;5001837;28;20064;-52
2022/03/09 11:29:44;;;;;;;1.55;1.05;;;;;;;;;;4998262;28;20054;-52
2022/03/09 11:32:14;;;;;;;3.78;1.83;;;;;;;;;;4999896;28;20472;-52
2022/03/09 11:34:41;;;;;;;2.00;1.13;;;;;;;;;;5005670;28;20041;-53
2022/03/09 11:37:10;;;;;;;0.47;0.43;;;;;;;;;;5010296;28;20396;-54
2022/03/09 11:39:37;;;;;;;0.85;0.77;;;;;;;;;;5008225;28;20065;-52
2022/03/09 11:42:21;;;;;;;0.70;0.50;;;;;;;;;;5018994;28;20094;-55
2022/03/09 11:44:51;;;;;;;2.50;0.93;;;;;;;;;;5013893;28;20570;-53
2022/03/09 11:47:17;;;;;;;8.68;1.05;;;;;;;;;;4997081;28;20038;-55
2022/03/09 11:49:45;;;;;;;2.17;0.77;;;;;;;;;;4997702;28;20057;-53
2022/03/09 11:52:19;;;;;;;1.02;0.77;;;;;;;;;;4995665;28;20033;-53
2022/03/09 11:54:46;;;;;;;0.88;0.85;;;;;;;;;;4996090;28;20030;-54
2022/03/09 11:57:13;;;;;;;3.35;1.23;;;;;;;;;;5000395;28;20112;-54
2022/03/09 11:59:39;;;;;;;0.40;0.40;;;;;;;;;;4998399;28;20046;-52
2022/03/09 12:02:15;;;;;;;0.55;0.50;;;;;;;;;;5000152;28;20024;-52
2022/03/09 12:04:50;;;;;;;6.93;0.52;;;;;;;;;;4999522;28;20472;-53
2022/03/09 12:07:33;;;;;;;0.40;0.40;;;;;;;;;;5000392;28;20038;-51
2022/03/09 12:10:00;;;;;;;0.75;0.57;;;;;;;;;;5001207;28;20055;-53
2022/03/09 12:12:27;;;;;;;0.40;0.40;;;;;;;;;;5000474;28;20360;-54
2022/03/09 12:15:03;;;;;;;0.35;0.35;;;;;;;;;;5001521;28;20023;-53
2022/03/09 12:17:32;;;;;;;1.55;0.70;;;;;;;;;;5002642;28;20054;-54
2022/03/09 12:20:17;;;;;;;2.08;0.95;;;;;;;;;;5001187;28;20170;-56
2022/03/09 12:22:55;;;;;;;0.77;0.50;;;;;;;;;;5001544;28;20033;-53
2022/03/09 12:25:40;;;;;;;0.55;0.47;;;;;;;;;;5000334;28;20460;-54
2022/03/09 12:28:31;;;;;;;0.22;0.22;;;;;;;;;;5000420;28;20048;-52
2022/03/09 12:31:03;;;;;;;0.98;0.82;;;;;;;;;;5002227;28;21767;-53
2022/03/09 12:33:42;;;;;;;0.75;0.75;;;;;;;;;;5002309;28;20472;-52
2022/03/09 12:36:15;;;;;;;0.40;0.40;;;;;;;;;;5001289;28;20044;-56
2022/03/09 12:38:51;;;;;;;0.75;0.50;;;;;;;;;;5001218;28;20552;-53
2022/03/09 12:41:27;;;;;;;0.38;0.38;;;;;;;;;;5003414;28;20042;-51
2022/03/09 12:43:54;;;;;;;3.63;1.60;;;;;;;;;;5005662;28;20030;-54
2022/03/09 12:46:21;;;;;;;1.02;0.65;;;;;;;;;;5011450;28;20018;-56
2022/03/09 12:48:47;;;;;;;7.38;0.98;;;;;;;;;;5015990;28;20017;-55
2022/03/09 12:51:13;;;;;;;0.50;0.50;;;;;;;;;;5012508;28;20037;-56
2022/03/09 12:53:41;;;;;;;0.68;0.50;;;;;;;;;;5010842;28;20045;-55
2022/03/09 12:56:17;;;;;;;0.90;0.70;;;;;;;;;;5006885;28;20038;-55
2022/03/09 12:58:43;;;;;;;0.70;0.50;;;;;;;;;;5003099;28;20110;-55
2022/03/09 13:01:10;;;;;;;0.80;0.63;;;;;;;;;;5005035;28;20025;-54
2022/03/09 13:03:36;;;;;;;0.80;0.50;;;;;;;;;;5009707;28;20048;-54
2022/03/09 13:06:06;;;;;;;0.88;0.55;;;;;;;;;;5003782;28;20029;-53
2022/03/09 13:08:34;;;;;;;1.45;0.82;;;;;;;;;;5002133;28;20029;-53
2022/03/09 13:11:01;;;;;;;0.38;0.32;;;;;;;;;;5004387;28;20155;-56
2022/03/09 13:13:33;;;;;;;0.35;0.22;;;;;;;;;;5000457;28;20803;-53
2022/03/09 13:15:59;;;;;;;0.68;0.45;;;;;;;;;;5001467;28;20529;-52
2022/03/09 13:18:32;;;;;;;0.98;0.70;;;;;;;;;;5001868;28;20029;-55
2022/03/09 13:20:59;;;;;;;0.40;0.40;;;;;;;;;;5000955;28;20049;-54
2022/03/09 13:23:39;;;;;;;6.20;1.00;;;;;;;;;;4999258;28;20038;-53
2022/03/09 13:26:11;;;;;;;1.73;0.60;;;;;;;;;;5016183;28;20037;-55
2022/03/09 13:28:37;;;;;;;2.17;0.50;;;;;;;;;;5008903;28;20038;-56
2022/03/09 13:31:03;;;;;;;0.30;0.30;;;;;;;;;;5010304;28;20102;-52
2022/03/09 13:33:29;;;;;;;0.57;0.57;;;;;;;;;;5000628;28;20519;-53
2022/03/09 13:35:56;;;;;;;0.20;0.20;;;;;;;;;;4999267;28;21400;-52
2022/03/09 13:38:24;;;;;;;1.02;0.68;;;;;;;;;;4994526;28;20041;-53
2022/03/09 13:40:50;;;;;;;0.50;0.50;;;;;;;;;;4997021;28;20168;-55
2022/03/09 13:43:16;;;;;;;0.50;0.50;;;;;;;;;;4998629;28;20050;-56
2022/03/09 13:45:42;;;;;;;1.17;0.82;;;;;;;;;;4999987;28;20049;-53
2022/03/09 13:48:18;;;;;;;1.80;0.88;;;;;;;;;;4999763;28;20042;-53
2022/03/09 13:50:48;;;;;;;0.28;0.28;;;;;;;;;;4997735;28;20938;-52
2022/03/09 13:53:16;;;;;;;1.95;0.57;;;;;;;;;;4998859;28;20061;-56
2022/03/09 13:55:48;;;;;;;0.55;0.55;;;;;;;;;;4995897;28;20135;-53
2022/03/09 13:58:15;;;;;;;0.50;0.50;;;;;;;;;;4999061;28;20053;-55
2022/03/09 14:00:42;;;;;;;1.00;0.60;;;;;;;;;;4997016;28;20081;-52
2022/03/09 14:03:19;;;;;;;1.90;0.98;;;;;;;;;;5005653;28;20069;-55
2022/03/09 14:05:48;;;;;;;3.05;1.25;;;;;;;;;;4996279;28;20077;-55
2022/03/09 14:08:25;;;;;;;2.15;0.88;;;;;;;;;;4996119;28;20065;-54
2022/03/09 14:10:51;;;;;;;2.75;0.88;;;;;;;;;;5011146;28;20103;-53
2022/03/09 14:13:17;;;;;;;2.92;1.27;;;;;;;;;;4999376;28;20037;-52
2022/03/09 14:15:43;;;;;;;1.02;0.60;;;;;;;;;;4996304;28;20432;-55
2022/03/09 14:18:09;;;;;;;1.02;0.88;;;;;;;;;;4996153;28;20069;-52
2022/03/09 14:20:35;;;;;;;2.05;1.55;;;;;;;;;;4997853;28;20401;-52
2022/03/09 14:23:01;;;;;;;1.38;0.80;;;;;;;;;;5014046;28;20038;-52
2022/03/09 14:25:27;;;;;;;4.28;1.02;;;;;;;;;;5008377;28;20076;-54
2022/03/09 14:27:54;;;;;;;0.40;0.40;;;;;;;;;;4997163;28;20096;-53
2022/03/09 14:30:21;;;;;;;0.20;0.20;;;;;;;;;;4997263;28;20407;-52
2022/03/09 14:32:47;;;;;;;0.28;0.28;;;;;;;;;;4997895;28;20551;-56
2022/03/09 14:35:15;;;;;;;0.45;0.40;;;;;;;;;;4998529;28;20038;-51
2022/03/09 14:37:49;;;;;;;0.40;0.40;;;;;;;;;;4998109;28;20390;-55
2022/03/09 14:40:15;;;;;;;2.08;1.27;;;;;;;;;;4997492;28;20084;-54
2022/03/09 14:42:42;;;;;;;0.30;0.30;;;;;;;;;;4997411;28;20412;-54
2022/03/09 14:45:08;;;;;;;1.50;0.60;;;;;;;;;;5000931;28;20776;-54
2022/03/09 14:47:34;;;;;;;0.63;0.45;;;;;;;;;;5001051;28;20056;-54